sensor_id;sensor_type;location;lat;lon;timestamp;P1;durP1;ratioP1;P2;durP2;ratioP2
81651;SDS011;71061;55.714;37.794;2023-08-31T00:00:09;13.05;;;6.90;;
81651;SDS011;71061;55.714;37.794;2023-08-31T00:02:39;14.98;;;7.07;;
81651;SDS011;71061;55.714;37.794;2023-08-31T00:05:06;12.88;;;6.93;;
81651;SDS011;71061;55.714;37.794;2023-08-31T00:07:32;15.10;;;7.63;;
81651;SDS011;71061;55.714;37.794;2023-08-31T00:09:58;15.95;;;6.80;;
81651;SDS011;71061;55.714;37.794;2023-08-31T00:12:24;12.93;;;7.35;;
81651;SDS011;71061;55.714;37.794;2023-08-31T00:14:50;12.27;;;6.70;;
81651;SDS011;71061;55.714;37.794;2023-08-31T00:17:16;13.30;;;7.50;;
81651;SDS011;71061;55.714;37.794;2023-08-31T00:19:42;12.68;;;7.13;;
81651;SDS011;71061;55.714;37.794;2023-08-31T00:22:09;12.02;;;7.55;;
81651;SDS011;71061;55.714;37.794;2023-08-31T00:24:34;13.20;;;7.00;;
81651;SDS011;71061;55.714;37.794;2023-08-31T00:27:02;12.35;;;6.82;;
81651;SDS011;71061;55.714;37.794;2023-08-31T00:29:29;13.90;;;7.25;;
81651;SDS011;71061;55.714;37.794;2023-08-31T00:31:56;13.43;;;7.70;;
81651;SDS011;71061;55.714;37.794;2023-08-31T00:34:22;13.10;;;6.82;;
81651;SDS011;71061;55.714;37.794;2023-08-31T00:36:47;13.82;;;7.10;;
81651;SDS011;71061;55.714;37.794;2023-08-31T00:39:14;11.13;;;7.32;;
81651;SDS011;71061;55.714;37.794;2023-08-31T00:41:41;13.15;;;7.18;;
81651;SDS011;71061;55.714;37.794;2023-08-31T00:44:07;12.40;;;7.57;;
81651;SDS011;71061;55.714;37.794;2023-08-31T00:46:33;14.45;;;7.78;;
81651;SDS011;71061;55.714;37.794;2023-08-31T00:49:00;13.63;;;7.65;;
81651;SDS011;71061;55.714;37.794;2023-08-31T00:51:26;13.32;;;7.45;;
81651;SDS011;71061;55.714;37.794;2023-08-31T00:53:52;12.13;;;7.22;;
81651;SDS011;71061;55.714;37.794;2023-08-31T00:56:20;16.55;;;7.75;;
81651;SDS011;71061;55.714;37.794;2023-08-31T00:58:46;17.23;;;9.20;;
81651;SDS011;71061;55.714;37.794;2023-08-31T01:07:18;13.35;;;8.18;;
81651;SDS011;71061;55.714;37.794;2023-08-31T01:12:29;14.18;;;8.25;;
81651;SDS011;71061;55.714;37.794;2023-08-31T01:15:03;14.00;;;8.40;;
81651;SDS011;71061;55.714;37.794;2023-08-31T01:17:38;16.58;;;8.35;;
81651;SDS011;71061;55.714;37.794;2023-08-31T01:20:08;12.85;;;7.97;;
81651;SDS011;71061;55.714;37.794;2023-08-31T01:25:12;20.75;;;10.35;;
81651;SDS011;71061;55.714;37.794;2023-08-31T01:27:38;15.68;;;7.78;;
81651;SDS011;71061;55.714;37.794;2023-08-31T01:30:05;16.60;;;8.23;;
81651;SDS011;71061;55.714;37.794;2023-08-31T01:32:32;13.02;;;9.05;;
81651;SDS011;71061;55.714;37.794;2023-08-31T01:35:00;10.88;;;7.82;;
81651;SDS011;71061;55.714;37.794;2023-08-31T01:37:32;14.18;;;8.85;;
81651;SDS011;71061;55.714;37.794;2023-08-31T01:40:02;14.30;;;8.00;;
81651;SDS011;71061;55.714;37.794;2023-08-31T01:42:32;14.75;;;10.05;;
81651;SDS011;71061;55.714;37.794;2023-08-31T01:44:58;15.82;;;10.30;;
81651;SDS011;71061;55.714;37.794;2023-08-31T01:47:29;18.90;;;9.65;;
81651;SDS011;71061;55.714;37.794;2023-08-31T01:49:56;16.90;;;9.23;;
81651;SDS011;71061;55.714;37.794;2023-08-31T01:52:23;16.75;;;9.80;;
81651;SDS011;71061;55.714;37.794;2023-08-31T01:54:48;15.10;;;8.93;;
81651;SDS011;71061;55.714;37.794;2023-08-31T01:57:14;14.90;;;8.43;;
81651;SDS011;71061;55.714;37.794;2023-08-31T02:00:00;18.25;;;9.38;;
81651;SDS011;71061;55.714;37.794;2023-08-31T02:02:25;13.30;;;8.82;;
81651;SDS011;71061;55.714;37.794;2023-08-31T02:04:51;16.05;;;8.23;;
81651;SDS011;71061;55.714;37.794;2023-08-31T02:07:17;14.73;;;8.65;;
81651;SDS011;71061;55.714;37.794;2023-08-31T02:09:43;15.15;;;9.55;;
81651;SDS011;71061;55.714;37.794;2023-08-31T02:12:09;13.77;;;8.80;;
81651;SDS011;71061;55.714;37.794;2023-08-31T02:14:35;17.38;;;8.68;;
81651;SDS011;71061;55.714;37.794;2023-08-31T02:17:01;14.57;;;8.88;;
81651;SDS011;71061;55.714;37.794;2023-08-31T02:19:27;16.27;;;9.90;;
81651;SDS011;71061;55.714;37.794;2023-08-31T02:21:53;20.88;;;9.55;;
81651;SDS011;71061;55.714;37.794;2023-08-31T02:24:19;19.40;;;10.57;;
81651;SDS011;71061;55.714;37.794;2023-08-31T02:26:45;17.00;;;9.43;;
81651;SDS011;71061;55.714;37.794;2023-08-31T02:29:11;15.32;;;10.30;;
81651;SDS011;71061;55.714;37.794;2023-08-31T02:31:36;17.30;;;9.35;;
81651;SDS011;71061;55.714;37.794;2023-08-31T02:34:04;14.73;;;8.95;;
81651;SDS011;71061;55.714;37.794;2023-08-31T02:36:30;15.25;;;9.80;;
81651;SDS011;71061;55.714;37.794;2023-08-31T02:38:56;16.08;;;10.57;;
81651;SDS011;71061;55.714;37.794;2023-08-31T02:41:22;16.75;;;9.15;;
81651;SDS011;71061;55.714;37.794;2023-08-31T02:43:50;18.83;;;10.60;;
81651;SDS011;71061;55.714;37.794;2023-08-31T02:46:16;15.07;;;8.55;;
81651;SDS011;71061;55.714;37.794;2023-08-31T02:48:43;14.77;;;9.25;;
81651;SDS011;71061;55.714;37.794;2023-08-31T02:51:09;18.40;;;11.23;;
81651;SDS011;71061;55.714;37.794;2023-08-31T02:53:35;21.42;;;12.43;;
81651;SDS011;71061;55.714;37.794;2023-08-31T02:56:01;17.92;;;11.90;;
81651;SDS011;71061;55.714;37.794;2023-08-31T02:58:28;19.08;;;10.52;;
81651;SDS011;71061;55.714;37.794;2023-08-31T03:00:54;18.23;;;11.07;;
81651;SDS011;71061;55.714;37.794;2023-08-31T03:03:21;18.50;;;11.55;;
81651;SDS011;71061;55.714;37.794;2023-08-31T03:05:47;16.63;;;9.45;;
81651;SDS011;71061;55.714;37.794;2023-08-31T03:08:13;18.70;;;11.50;;
81651;SDS011;71061;55.714;37.794;2023-08-31T03:10:38;17.77;;;13.10;;
81651;SDS011;71061;55.714;37.794;2023-08-31T03:13:05;19.23;;;12.63;;
81651;SDS011;71061;55.714;37.794;2023-08-31T03:15:32;20.42;;;12.40;;
81651;SDS011;71061;55.714;37.794;2023-08-31T03:17:59;23.35;;;12.68;;
81651;SDS011;71061;55.714;37.794;2023-08-31T03:20:25;22.80;;;13.40;;
81651;SDS011;71061;55.714;37.794;2023-08-31T03:22:51;22.60;;;12.02;;
81651;SDS011;71061;55.714;37.794;2023-08-31T03:25:17;19.80;;;11.10;;
81651;SDS011;71061;55.714;37.794;2023-08-31T03:27:42;21.30;;;10.32;;
81651;SDS011;71061;55.714;37.794;2023-08-31T03:30:09;18.95;;;11.00;;
81651;SDS011;71061;55.714;37.794;2023-08-31T03:32:35;17.45;;;10.23;;
81651;SDS011;71061;55.714;37.794;2023-08-31T03:37:53;24.55;;;10.82;;
81651;SDS011;71061;55.714;37.794;2023-08-31T03:40:18;18.42;;;10.40;;
81651;SDS011;71061;55.714;37.794;2023-08-31T03:42:44;18.75;;;9.65;;
81651;SDS011;71061;55.714;37.794;2023-08-31T03:45:11;18.20;;;9.52;;
81651;SDS011;71061;55.714;37.794;2023-08-31T03:47:37;15.77;;;9.10;;
81651;SDS011;71061;55.714;37.794;2023-08-31T03:50:03;14.90;;;8.85;;
81651;SDS011;71061;55.714;37.794;2023-08-31T03:52:29;18.08;;;8.70;;
81651;SDS011;71061;55.714;37.794;2023-08-31T03:54:55;18.95;;;9.00;;
81651;SDS011;71061;55.714;37.794;2023-08-31T03:57:21;16.92;;;9.10;;
81651;SDS011;71061;55.714;37.794;2023-08-31T03:59:49;17.00;;;10.23;;
81651;SDS011;71061;55.714;37.794;2023-08-31T04:02:14;22.27;;;9.90;;
81651;SDS011;71061;55.714;37.794;2023-08-31T04:04:40;16.00;;;10.40;;
81651;SDS011;71061;55.714;37.794;2023-08-31T04:07:06;17.90;;;9.93;;
81651;SDS011;71061;55.714;37.794;2023-08-31T04:09:32;18.13;;;9.23;;
81651;SDS011;71061;55.714;37.794;2023-08-31T04:11:58;21.70;;;9.70;;
81651;SDS011;71061;55.714;37.794;2023-08-31T04:14:27;19.27;;;10.35;;
81651;SDS011;71061;55.714;37.794;2023-08-31T04:16:54;15.75;;;8.98;;
81651;SDS011;71061;55.714;37.794;2023-08-31T04:19:20;15.93;;;9.82;;
81651;SDS011;71061;55.714;37.794;2023-08-31T04:21:46;18.77;;;9.18;;
81651;SDS011;71061;55.714;37.794;2023-08-31T04:24:11;17.35;;;10.30;;
81651;SDS011;71061;55.714;37.794;2023-08-31T04:26:37;15.65;;;9.30;;
81651;SDS011;71061;55.714;37.794;2023-08-31T04:29:02;17.23;;;10.30;;
81651;SDS011;71061;55.714;37.794;2023-08-31T04:31:31;14.88;;;9.80;;
81651;SDS011;71061;55.714;37.794;2023-08-31T04:33:57;17.73;;;9.93;;
81651;SDS011;71061;55.714;37.794;2023-08-31T04:36:23;16.75;;;9.60;;
81651;SDS011;71061;55.714;37.794;2023-08-31T04:38:51;17.23;;;10.32;;
81651;SDS011;71061;55.714;37.794;2023-08-31T04:41:16;15.95;;;9.88;;
81651;SDS011;71061;55.714;37.794;2023-08-31T04:43:42;15.60;;;9.80;;
81651;SDS011;71061;55.714;37.794;2023-08-31T04:46:08;15.70;;;9.48;;
81651;SDS011;71061;55.714;37.794;2023-08-31T04:48:35;21.63;;;9.38;;
81651;SDS011;71061;55.714;37.794;2023-08-31T04:51:01;15.00;;;8.60;;
81651;SDS011;71061;55.714;37.794;2023-08-31T04:53:29;16.75;;;9.93;;
81651;SDS011;71061;55.714;37.794;2023-08-31T04:55:55;15.52;;;9.93;;
81651;SDS011;71061;55.714;37.794;2023-08-31T04:58:21;15.07;;;9.38;;
81651;SDS011;71061;55.714;37.794;2023-08-31T05:00:47;16.63;;;9.05;;
81651;SDS011;71061;55.714;37.794;2023-08-31T05:03:13;17.85;;;11.63;;
81651;SDS011;71061;55.714;37.794;2023-08-31T05:05:38;17.40;;;10.25;;
81651;SDS011;71061;55.714;37.794;2023-08-31T05:08:04;15.40;;;9.32;;
81651;SDS011;71061;55.714;37.794;2023-08-31T05:10:30;18.20;;;10.05;;
81651;SDS011;71061;55.714;37.794;2023-08-31T05:12:56;14.95;;;9.10;;
81651;SDS011;71061;55.714;37.794;2023-08-31T05:15:21;15.13;;;9.32;;
81651;SDS011;71061;55.714;37.794;2023-08-31T05:17:48;18.95;;;10.45;;
81651;SDS011;71061;55.714;37.794;2023-08-31T05:20:14;16.23;;;9.32;;
81651;SDS011;71061;55.714;37.794;2023-08-31T05:22:39;14.43;;;9.60;;
81651;SDS011;71061;55.714;37.794;2023-08-31T05:25:05;16.50;;;10.25;;
81651;SDS011;71061;55.714;37.794;2023-08-31T05:27:31;15.35;;;9.93;;
81651;SDS011;71061;55.714;37.794;2023-08-31T05:29:56;19.17;;;9.45;;
81651;SDS011;71061;55.714;37.794;2023-08-31T05:32:22;16.85;;;10.20;;
81651;SDS011;71061;55.714;37.794;2023-08-31T05:34:47;16.15;;;9.48;;
81651;SDS011;71061;55.714;37.794;2023-08-31T05:37:13;20.67;;;10.98;;
81651;SDS011;71061;55.714;37.794;2023-08-31T05:39:39;17.67;;;9.18;;
81651;SDS011;71061;55.714;37.794;2023-08-31T05:42:05;21.70;;;12.40;;
81651;SDS011;71061;55.714;37.794;2023-08-31T05:44:30;18.42;;;10.80;;
81651;SDS011;71061;55.714;37.794;2023-08-31T05:46:56;17.23;;;10.93;;
81651;SDS011;71061;55.714;37.794;2023-08-31T05:49:21;19.45;;;9.40;;
81651;SDS011;71061;55.714;37.794;2023-08-31T05:51:47;15.07;;;9.02;;
81651;SDS011;71061;55.714;37.794;2023-08-31T05:54:13;16.15;;;9.98;;
81651;SDS011;71061;55.714;37.794;2023-08-31T05:56:39;17.67;;;9.52;;
81651;SDS011;71061;55.714;37.794;2023-08-31T05:59:06;17.50;;;9.98;;
81651;SDS011;71061;55.714;37.794;2023-08-31T06:01:32;16.58;;;9.20;;
81651;SDS011;71061;55.714;37.794;2023-08-31T06:03:59;17.20;;;10.27;;
81651;SDS011;71061;55.714;37.794;2023-08-31T06:06:24;16.92;;;8.55;;
81651;SDS011;71061;55.714;37.794;2023-08-31T06:08:50;13.90;;;8.13;;
81651;SDS011;71061;55.714;37.794;2023-08-31T06:11:15;16.83;;;8.38;;
81651;SDS011;71061;55.714;37.794;2023-08-31T06:13:41;16.60;;;9.43;;
81651;SDS011;71061;55.714;37.794;2023-08-31T06:16:06;12.55;;;7.85;;
81651;SDS011;71061;55.714;37.794;2023-08-31T06:18:32;14.10;;;7.32;;
81651;SDS011;71061;55.714;37.794;2023-08-31T06:20:58;15.32;;;8.30;;
81651;SDS011;71061;55.714;37.794;2023-08-31T06:23:23;16.33;;;7.95;;
81651;SDS011;71061;55.714;37.794;2023-08-31T06:25:49;13.77;;;9.07;;
81651;SDS011;71061;55.714;37.794;2023-08-31T06:28:15;17.67;;;9.25;;
81651;SDS011;71061;55.714;37.794;2023-08-31T06:30:41;15.25;;;6.70;;
81651;SDS011;71061;55.714;37.794;2023-08-31T06:33:13;14.65;;;8.00;;
81651;SDS011;71061;55.714;37.794;2023-08-31T06:35:39;11.15;;;6.82;;
81651;SDS011;71061;55.714;37.794;2023-08-31T06:38:05;15.00;;;7.82;;
81651;SDS011;71061;55.714;37.794;2023-08-31T06:40:30;16.38;;;8.15;;
81651;SDS011;71061;55.714;37.794;2023-08-31T06:42:56;17.27;;;8.43;;
81651;SDS011;71061;55.714;37.794;2023-08-31T06:45:22;13.30;;;7.32;;
81651;SDS011;71061;55.714;37.794;2023-08-31T06:47:47;12.85;;;7.22;;
81651;SDS011;71061;55.714;37.794;2023-08-31T06:50:13;13.23;;;8.02;;
81651;SDS011;71061;55.714;37.794;2023-08-31T06:52:38;15.52;;;8.38;;
81651;SDS011;71061;55.714;37.794;2023-08-31T06:55:06;15.43;;;7.70;;
81651;SDS011;71061;55.714;37.794;2023-08-31T06:57:32;16.48;;;8.50;;
81651;SDS011;71061;55.714;37.794;2023-08-31T06:59:58;14.85;;;8.15;;
81651;SDS011;71061;55.714;37.794;2023-08-31T07:02:25;16.02;;;8.02;;
81651;SDS011;71061;55.714;37.794;2023-08-31T07:04:51;17.52;;;6.88;;
81651;SDS011;71061;55.714;37.794;2023-08-31T07:07:17;18.90;;;8.05;;
81651;SDS011;71061;55.714;37.794;2023-08-31T07:09:43;15.23;;;7.03;;
81651;SDS011;71061;55.714;37.794;2023-08-31T07:12:09;12.73;;;6.65;;
81651;SDS011;71061;55.714;37.794;2023-08-31T07:14:35;14.73;;;7.22;;
81651;SDS011;71061;55.714;37.794;2023-08-31T07:17:01;12.70;;;7.07;;
81651;SDS011;71061;55.714;37.794;2023-08-31T07:19:26;11.60;;;6.47;;
81651;SDS011;71061;55.714;37.794;2023-08-31T07:21:52;15.07;;;7.32;;
81651;SDS011;71061;55.714;37.794;2023-08-31T07:24:20;12.10;;;7.00;;
81651;SDS011;71061;55.714;37.794;2023-08-31T07:26:46;15.82;;;7.93;;
81651;SDS011;71061;55.714;37.794;2023-08-31T07:29:12;11.55;;;6.72;;
81651;SDS011;71061;55.714;37.794;2023-08-31T07:31:38;12.68;;;6.70;;
81651;SDS011;71061;55.714;37.794;2023-08-31T07:34:03;15.15;;;7.70;;
81651;SDS011;71061;55.714;37.794;2023-08-31T07:36:29;15.95;;;7.53;;
81651;SDS011;71061;55.714;37.794;2023-08-31T07:38:54;17.38;;;7.43;;
81651;SDS011;71061;55.714;37.794;2023-08-31T07:41:20;15.25;;;7.55;;
81651;SDS011;71061;55.714;37.794;2023-08-31T07:43:46;13.25;;;6.63;;
81651;SDS011;71061;55.714;37.794;2023-08-31T07:46:11;19.05;;;6.82;;
81651;SDS011;71061;55.714;37.794;2023-08-31T07:48:37;15.68;;;7.07;;
81651;SDS011;71061;55.714;37.794;2023-08-31T07:51:03;12.85;;;6.70;;
81651;SDS011;71061;55.714;37.794;2023-08-31T07:53:28;13.75;;;8.00;;
81651;SDS011;71061;55.714;37.794;2023-08-31T07:55:54;11.30;;;6.75;;
81651;SDS011;71061;55.714;37.794;2023-08-31T07:58:22;17.88;;;7.00;;
81651;SDS011;71061;55.714;37.794;2023-08-31T08:00:49;11.82;;;6.85;;
81651;SDS011;71061;55.714;37.794;2023-08-31T08:03:17;11.63;;;6.47;;
81651;SDS011;71061;55.714;37.794;2023-08-31T08:05:43;19.30;;;8.27;;
81651;SDS011;71061;55.714;37.794;2023-08-31T08:08:09;14.57;;;6.93;;
81651;SDS011;71061;55.714;37.794;2023-08-31T08:10:34;13.00;;;7.15;;
81651;SDS011;71061;55.714;37.794;2023-08-31T08:13:00;16.40;;;6.90;;
81651;SDS011;71061;55.714;37.794;2023-08-31T08:15:25;14.30;;;6.35;;
81651;SDS011;71061;55.714;37.794;2023-08-31T08:17:51;13.25;;;6.22;;
81651;SDS011;71061;55.714;37.794;2023-08-31T08:20:18;13.40;;;6.78;;
81651;SDS011;71061;55.714;37.794;2023-08-31T08:22:44;18.02;;;6.20;;
81651;SDS011;71061;55.714;37.794;2023-08-31T08:25:10;15.18;;;6.60;;
81651;SDS011;71061;55.714;37.794;2023-08-31T08:27:35;13.55;;;6.47;;
81651;SDS011;71061;55.714;37.794;2023-08-31T08:30:02;17.00;;;7.30;;
81651;SDS011;71061;55.714;37.794;2023-08-31T08:32:30;12.88;;;6.35;;
81651;SDS011;71061;55.714;37.794;2023-08-31T08:34:55;15.02;;;6.18;;
81651;SDS011;71061;55.714;37.794;2023-08-31T08:37:21;14.43;;;5.97;;
81651;SDS011;71061;55.714;37.794;2023-08-31T08:39:48;13.95;;;7.68;;
81651;SDS011;71061;55.714;37.794;2023-08-31T08:42:15;15.52;;;7.38;;
81651;SDS011;71061;55.714;37.794;2023-08-31T08:44:42;15.80;;;7.93;;
81651;SDS011;71061;55.714;37.794;2023-08-31T08:47:08;10.70;;;5.03;;
81651;SDS011;71061;55.714;37.794;2023-08-31T08:49:34;11.80;;;6.03;;
81651;SDS011;71061;55.714;37.794;2023-08-31T08:52:01;14.00;;;6.85;;
81651;SDS011;71061;55.714;37.794;2023-08-31T08:54:27;12.65;;;6.70;;
81651;SDS011;71061;55.714;37.794;2023-08-31T08:56:53;15.02;;;5.65;;
81651;SDS011;71061;55.714;37.794;2023-08-31T08:59:19;10.45;;;5.85;;
81651;SDS011;71061;55.714;37.794;2023-08-31T09:01:45;13.10;;;5.50;;
81651;SDS011;71061;55.714;37.794;2023-08-31T09:04:11;11.98;;;5.85;;
81651;SDS011;71061;55.714;37.794;2023-08-31T09:06:37;12.57;;;5.35;;
81651;SDS011;71061;55.714;37.794;2023-08-31T09:09:02;18.60;;;7.70;;
81651;SDS011;71061;55.714;37.794;2023-08-31T09:11:29;12.38;;;5.60;;
81651;SDS011;71061;55.714;37.794;2023-08-31T09:13:56;13.45;;;6.70;;
81651;SDS011;71061;55.714;37.794;2023-08-31T09:16:24;11.77;;;6.88;;
81651;SDS011;71061;55.714;37.794;2023-08-31T09:18:53;16.55;;;5.43;;
81651;SDS011;71061;55.714;37.794;2023-08-31T09:21:20;16.10;;;5.78;;
81651;SDS011;71061;55.714;37.794;2023-08-31T09:23:55;9.63;;;5.88;;
81651;SDS011;71061;55.714;37.794;2023-08-31T09:26:23;14.23;;;5.97;;
81651;SDS011;71061;55.714;37.794;2023-08-31T09:28:49;12.38;;;5.28;;
81651;SDS011;71061;55.714;37.794;2023-08-31T09:31:15;11.13;;;5.90;;
81651;SDS011;71061;55.714;37.794;2023-08-31T09:33:50;11.35;;;5.50;;
81651;SDS011;71061;55.714;37.794;2023-08-31T09:36:16;10.57;;;4.65;;
81651;SDS011;71061;55.714;37.794;2023-08-31T09:38:43;11.43;;;4.43;;
81651;SDS011;71061;55.714;37.794;2023-08-31T09:41:09;11.57;;;5.63;;
81651;SDS011;71061;55.714;37.794;2023-08-31T09:43:35;8.80;;;5.07;;
81651;SDS011;71061;55.714;37.794;2023-08-31T09:46:01;10.82;;;4.60;;
81651;SDS011;71061;55.714;37.794;2023-08-31T09:48:28;10.32;;;5.10;;
81651;SDS011;71061;55.714;37.794;2023-08-31T09:50:55;11.35;;;6.05;;
81651;SDS011;71061;55.714;37.794;2023-08-31T09:53:21;16.65;;;5.07;;
81651;SDS011;71061;55.714;37.794;2023-08-31T09:55:47;9.57;;;4.80;;
81651;SDS011;71061;55.714;37.794;2023-08-31T09:58:16;12.35;;;4.78;;
81651;SDS011;71061;55.714;37.794;2023-08-31T10:00:45;11.48;;;4.75;;
81651;SDS011;71061;55.714;37.794;2023-08-31T10:03:11;10.38;;;4.53;;
81651;SDS011;71061;55.714;37.794;2023-08-31T10:05:41;9.93;;;5.57;;
81651;SDS011;71061;55.714;37.794;2023-08-31T10:08:08;10.15;;;4.75;;
81651;SDS011;71061;55.714;37.794;2023-08-31T10:10:34;11.95;;;5.80;;
81651;SDS011;71061;55.714;37.794;2023-08-31T10:13:00;8.98;;;4.57;;
81651;SDS011;71061;55.714;37.794;2023-08-31T10:15:28;9.98;;;4.72;;
81651;SDS011;71061;55.714;37.794;2023-08-31T10:17:58;7.50;;;4.60;;
81651;SDS011;71061;55.714;37.794;2023-08-31T10:20:25;8.32;;;5.05;;
81651;SDS011;71061;55.714;37.794;2023-08-31T10:22:55;10.95;;;5.95;;
81651;SDS011;71061;55.714;37.794;2023-08-31T10:25:23;10.30;;;4.90;;
81651;SDS011;71061;55.714;37.794;2023-08-31T10:27:49;9.02;;;4.00;;
81651;SDS011;71061;55.714;37.794;2023-08-31T10:30:25;8.15;;;3.47;;
81651;SDS011;71061;55.714;37.794;2023-08-31T10:35:54;9.70;;;5.53;;
81651;SDS011;71061;55.714;37.794;2023-08-31T10:38:29;10.60;;;5.82;;
81651;SDS011;71061;55.714;37.794;2023-08-31T10:51:49;9.63;;;4.95;;
81651;SDS011;71061;55.714;37.794;2023-08-31T11:07:45;13.13;;;4.68;;
81651;SDS011;71061;55.714;37.794;2023-08-31T11:10:14;8.52;;;4.57;;
81651;SDS011;71061;55.714;37.794;2023-08-31T11:12:43;11.82;;;4.88;;
81651;SDS011;71061;55.714;37.794;2023-08-31T11:15:12;10.88;;;4.47;;
81651;SDS011;71061;55.714;37.794;2023-08-31T11:17:39;12.52;;;4.75;;
81651;SDS011;71061;55.714;37.794;2023-08-31T11:20:06;9.20;;;5.07;;
81651;SDS011;71061;55.714;37.794;2023-08-31T11:22:38;8.25;;;4.53;;
81651;SDS011;71061;55.714;37.794;2023-08-31T11:25:05;11.90;;;4.32;;
81651;SDS011;71061;55.714;37.794;2023-08-31T11:27:32;12.07;;;4.95;;
81651;SDS011;71061;55.714;37.794;2023-08-31T11:29:57;11.32;;;4.70;;
81651;SDS011;71061;55.714;37.794;2023-08-31T11:32:23;11.15;;;4.80;;
81651;SDS011;71061;55.714;37.794;2023-08-31T11:34:50;9.63;;;3.90;;
81651;SDS011;71061;55.714;37.794;2023-08-31T11:37:16;8.55;;;4.88;;
81651;SDS011;71061;55.714;37.794;2023-08-31T11:39:48;11.48;;;4.53;;
81651;SDS011;71061;55.714;37.794;2023-08-31T11:42:15;9.68;;;3.97;;
81651;SDS011;71061;55.714;37.794;2023-08-31T11:44:44;9.02;;;4.63;;
81651;SDS011;71061;55.714;37.794;2023-08-31T11:47:11;10.27;;;4.95;;
81651;SDS011;71061;55.714;37.794;2023-08-31T11:49:38;11.27;;;5.60;;
81651;SDS011;71061;55.714;37.794;2023-08-31T11:52:05;9.85;;;4.93;;
81651;SDS011;71061;55.714;37.794;2023-08-31T11:54:31;10.23;;;4.97;;
81651;SDS011;71061;55.714;37.794;2023-08-31T11:56:57;11.60;;;5.18;;
81651;SDS011;71061;55.714;37.794;2023-08-31T11:59:22;10.38;;;5.38;;
81651;SDS011;71061;55.714;37.794;2023-08-31T12:01:49;10.38;;;4.50;;
81651;SDS011;71061;55.714;37.794;2023-08-31T12:04:16;11.95;;;4.80;;
81651;SDS011;71061;55.714;37.794;2023-08-31T12:06:46;9.40;;;4.82;;
81651;SDS011;71061;55.714;37.794;2023-08-31T12:09:13;13.43;;;4.57;;
81651;SDS011;71061;55.714;37.794;2023-08-31T12:11:39;12.68;;;6.22;;
81651;SDS011;71061;55.714;37.794;2023-08-31T12:14:17;13.38;;;6.10;;
81651;SDS011;71061;55.714;37.794;2023-08-31T12:16:47;10.45;;;5.65;;
81651;SDS011;71061;55.714;37.794;2023-08-31T12:19:12;10.82;;;5.07;;
81651;SDS011;71061;55.714;37.794;2023-08-31T12:21:38;13.35;;;6.80;;
81651;SDS011;71061;55.714;37.794;2023-08-31T12:24:05;10.80;;;4.68;;
81651;SDS011;71061;55.714;37.794;2023-08-31T12:26:31;12.77;;;5.10;;
81651;SDS011;71061;55.714;37.794;2023-08-31T12:28:57;11.38;;;4.63;;
81651;SDS011;71061;55.714;37.794;2023-08-31T12:31:22;9.82;;;5.90;;
81651;SDS011;71061;55.714;37.794;2023-08-31T12:33:49;12.05;;;5.30;;
81651;SDS011;71061;55.714;37.794;2023-08-31T12:36:14;10.70;;;5.28;;
81651;SDS011;71061;55.714;37.794;2023-08-31T12:38:40;15.43;;;5.82;;
81651;SDS011;71061;55.714;37.794;2023-08-31T12:41:06;11.07;;;5.00;;
81651;SDS011;71061;55.714;37.794;2023-08-31T12:43:32;16.75;;;5.53;;
81651;SDS011;71061;55.714;37.794;2023-08-31T12:45:58;12.50;;;5.28;;
81651;SDS011;71061;55.714;37.794;2023-08-31T12:48:24;13.93;;;6.15;;
81651;SDS011;71061;55.714;37.794;2023-08-31T12:50:50;11.85;;;4.90;;
81651;SDS011;71061;55.714;37.794;2023-08-31T12:53:16;10.13;;;4.90;;
81651;SDS011;71061;55.714;37.794;2023-08-31T12:55:42;12.27;;;4.95;;
81651;SDS011;71061;55.714;37.794;2023-08-31T12:58:08;10.20;;;4.90;;
81651;SDS011;71061;55.714;37.794;2023-08-31T13:00:34;13.85;;;4.38;;
81651;SDS011;71061;55.714;37.794;2023-08-31T13:03:00;11.75;;;5.00;;
81651;SDS011;71061;55.714;37.794;2023-08-31T13:05:27;12.00;;;4.72;;
81651;SDS011;71061;55.714;37.794;2023-08-31T13:07:54;11.35;;;4.85;;
81651;SDS011;71061;55.714;37.794;2023-08-31T13:10:20;12.05;;;4.85;;
81651;SDS011;71061;55.714;37.794;2023-08-31T13:12:46;16.70;;;5.78;;
81651;SDS011;71061;55.714;37.794;2023-08-31T13:15:12;12.10;;;5.07;;
81651;SDS011;71061;55.714;37.794;2023-08-31T13:17:38;10.68;;;4.93;;
81651;SDS011;71061;55.714;37.794;2023-08-31T13:20:05;12.65;;;5.15;;
81651;SDS011;71061;55.714;37.794;2023-08-31T13:22:32;7.28;;;4.13;;
81651;SDS011;71061;55.714;37.794;2023-08-31T13:24:57;9.10;;;5.15;;
81651;SDS011;71061;55.714;37.794;2023-08-31T13:27:23;11.98;;;5.07;;
81651;SDS011;71061;55.714;37.794;2023-08-31T13:29:49;8.90;;;4.40;;
81651;SDS011;71061;55.714;37.794;2023-08-31T13:32:16;12.50;;;4.90;;
81651;SDS011;71061;55.714;37.794;2023-08-31T13:34:41;9.85;;;5.00;;
81651;SDS011;71061;55.714;37.794;2023-08-31T13:37:07;13.27;;;4.70;;
81651;SDS011;71061;55.714;37.794;2023-08-31T13:39:33;10.20;;;4.80;;
81651;SDS011;71061;55.714;37.794;2023-08-31T13:42:01;11.85;;;4.45;;
81651;SDS011;71061;55.714;37.794;2023-08-31T13:44:29;11.90;;;5.18;;
81651;SDS011;71061;55.714;37.794;2023-08-31T13:46:57;9.80;;;4.53;;
81651;SDS011;71061;55.714;37.794;2023-08-31T13:49:22;17.58;;;4.80;;
81651;SDS011;71061;55.714;37.794;2023-08-31T13:51:48;11.18;;;4.70;;
81651;SDS011;71061;55.714;37.794;2023-08-31T13:54:14;9.35;;;5.13;;
81651;SDS011;71061;55.714;37.794;2023-08-31T13:56:40;9.68;;;4.78;;
81651;SDS011;71061;55.714;37.794;2023-08-31T13:59:05;11.00;;;5.43;;
81651;SDS011;71061;55.714;37.794;2023-08-31T14:01:31;14.50;;;4.35;;
81651;SDS011;71061;55.714;37.794;2023-08-31T14:03:57;9.02;;;4.72;;
81651;SDS011;71061;55.714;37.794;2023-08-31T14:06:23;9.93;;;4.35;;
81651;SDS011;71061;55.714;37.794;2023-08-31T14:08:49;11.20;;;5.43;;
81651;SDS011;71061;55.714;37.794;2023-08-31T14:11:15;12.98;;;4.97;;
81651;SDS011;71061;55.714;37.794;2023-08-31T14:13:42;12.55;;;6.28;;
81651;SDS011;71061;55.714;37.794;2023-08-31T14:16:08;13.90;;;4.80;;
81651;SDS011;71061;55.714;37.794;2023-08-31T14:18:34;11.65;;;4.72;;
81651;SDS011;71061;55.714;37.794;2023-08-31T14:21:00;10.43;;;5.15;;
81651;SDS011;71061;55.714;37.794;2023-08-31T14:23:26;12.13;;;4.75;;
81651;SDS011;71061;55.714;37.794;2023-08-31T14:25:52;11.82;;;4.50;;
81651;SDS011;71061;55.714;37.794;2023-08-31T14:28:18;12.75;;;4.78;;
81651;SDS011;71061;55.714;37.794;2023-08-31T14:30:44;13.98;;;6.57;;
81651;SDS011;71061;55.714;37.794;2023-08-31T14:33:09;11.88;;;5.40;;
81651;SDS011;71061;55.714;37.794;2023-08-31T14:35:37;13.07;;;5.45;;
81651;SDS011;71061;55.714;37.794;2023-08-31T14:38:03;16.58;;;5.88;;
81651;SDS011;71061;55.714;37.794;2023-08-31T14:40:29;12.95;;;7.22;;
81651;SDS011;71061;55.714;37.794;2023-08-31T14:42:55;11.02;;;5.47;;
81651;SDS011;71061;55.714;37.794;2023-08-31T14:45:21;11.68;;;5.53;;
81651;SDS011;71061;55.714;37.794;2023-08-31T14:47:47;14.13;;;5.82;;
81651;SDS011;71061;55.714;37.794;2023-08-31T14:50:12;11.05;;;5.43;;
81651;SDS011;71061;55.714;37.794;2023-08-31T14:52:38;13.65;;;5.97;;
81651;SDS011;71061;55.714;37.794;2023-08-31T14:55:04;16.02;;;5.35;;
81651;SDS011;71061;55.714;37.794;2023-08-31T14:57:30;10.65;;;5.00;;